Time;durP1;ratioP1;P1;durP2;ratioP2;P2;SDS_P1;SDS_P2;PMS_P1;PMS_P2;Temp;Humidity;BMP_temperature;BMP_pressure;BME280_temperature;BME280_humidity;BME280_pressure;Samples;Min_cycle;Max_cycle;Signal;HPM_P1;HPM_P2
2022/09/16 00:02:01;;;;;;;;;;;15.00;99.90;;;;;;5077943;28;20151;-58
2022/09/16 00:04:27;;;;;;;;;;;15.00;99.90;;;;;;5077838;28;20299;-58
2022/09/16 00:06:53;;;;;;;;;;;15.10;99.90;;;;;;5077875;28;19912;-56
2022/09/16 00:09:19;;;;;;;;;;;15.10;99.90;;;;;;5077011;28;19908;-58
2022/09/16 00:11:44;;;;;;;;;;;15.20;99.90;;;;;;5077840;28;19985;-58
2022/09/16 00:14:10;;;;;;;;;;;15.10;99.90;;;;;;5078064;28;20219;-58
2022/09/16 00:16:36;;;;;;;;;;;15.10;99.90;;;;;;5077804;28;19916;-58
2022/09/16 00:19:02;;;;;;;;;;;15.00;99.90;;;;;;5076926;28;20011;-58
2022/09/16 00:21:28;;;;;;;;;;;14.90;99.90;;;;;;5077506;28;19916;-58
2022/09/16 00:23:54;;;;;;;;;;;14.90;99.90;;;;;;5077949;28;20232;-58
2022/09/16 00:26:20;;;;;;;;;;;14.90;99.90;;;;;;5093665;28;19958;-58
2022/09/16 00:28:49;;;;;;;;;;;14.70;99.90;;;;;;5077578;28;20199;-58
2022/09/16 00:31:16;;;;;;;;;;;14.60;99.90;;;;;;5077366;28;19957;-58
2022/09/16 00:33:41;;;;;;;;;;;14.50;99.90;;;;;;5077453;28;19908;-57
2022/09/16 00:36:08;;;;;;;;;;;14.60;99.90;;;;;;5077476;28;20239;-57
2022/09/16 00:38:34;;;;;;;;;;;14.50;99.90;;;;;;5077503;28;20260;-57
2022/09/16 00:41:00;;;;;;;;;;;14.60;99.90;;;;;;5093496;28;19931;-58
2022/09/16 00:43:25;;;;;;;;;;;14.50;99.90;;;;;;5077423;28;19919;-58
2022/09/16 00:46:00;;;;;;;;;;;14.40;99.90;;;;;;5077359;28;19995;-58
2022/09/16 00:48:28;;;;;;;;;;;14.30;99.90;;;;;;5077426;28;19908;-58
2022/09/16 00:50:57;;;;;;;;;;;14.10;99.90;;;;;;5076552;28;20276;-59
2022/09/16 00:53:28;;;;;;;;;;;14.20;99.90;;;;;;5077816;28;19916;-58
2022/09/16 00:55:55;;;;;;;;;;;14.20;99.90;;;;;;5077211;28;19908;-58
2022/09/16 00:58:25;;;;;;;;;;;14.10;99.90;;;;;;5076574;28;19916;-58
2022/09/16 01:00:51;;;;;;;;;;;14.20;99.90;;;;;;5077511;28;20287;-58
2022/09/16 01:03:17;;;;;;;;;;;14.20;99.90;;;;;;5077222;28;20003;-59
2022/09/16 01:05:44;;;;;;;;;;;14.30;99.90;;;;;;5076507;28;19934;-59
2022/09/16 01:08:09;;;;;;;;;;;14.30;99.90;;;;;;5077238;28;19940;-60
2022/09/16 01:10:35;;;;;;;;;;;14.10;99.90;;;;;;5077182;28;19917;-59
2022/09/16 01:13:03;;;;;;;;;;;14.00;99.90;;;;;;5076377;28;19964;-59
2022/09/16 01:15:34;;;;;;;;;;;14.10;99.90;;;;;;5077197;28;19958;-58
2022/09/16 01:18:06;;;;;;;;;;;14.00;99.90;;;;;;5077088;28;19918;-59
2022/09/16 01:20:38;;;;;;;;;;;14.00;99.90;;;;;;5076978;28;20219;-58
2022/09/16 01:23:27;;;;;;;;;;;13.90;99.90;;;;;;5076059;28;19989;-58
2022/09/16 01:26:11;;;;;;;;;;;13.80;99.90;;;;;;5068690;28;19912;-58
2022/09/16 01:28:56;;;;;;;;;;;13.70;99.90;;;;;;5076195;28;19947;-59
2022/09/16 01:31:48;;;;;;;;;;;13.70;99.90;;;;;;5076169;28;19993;-58
2022/09/16 01:34:13;;;;;;;;;;;13.70;99.90;;;;;;5073856;28;19913;-59
2022/09/16 01:36:44;;;;;;;;;;;13.80;99.90;;;;;;5076907;28;19991;-58
2022/09/16 01:39:29;;;;;;;;;;;13.80;99.90;;;;;;5076848;28;20166;-58
2022/09/16 01:42:14;;;;;;;;;;;13.70;99.90;;;;;;5076944;28;20073;-58
2022/09/16 01:44:45;;;;;;;;;;;13.80;99.90;;;;;;5080974;28;19908;-58
2022/09/16 01:47:17;;;;;;;;;;;13.80;99.90;;;;;;5080564;28;19962;-58
2022/09/16 01:49:46;;;;;;;;;;;13.80;99.90;;;;;;5079713;28;19920;-58
2022/09/16 01:52:23;;;;;;;;;;;14.00;99.90;;;;;;5080494;28;19909;-59
2022/09/16 01:54:55;;;;;;;;;;;13.90;99.90;;;;;;5080283;28;20169;-58
2022/09/16 01:57:26;;;;;;;;;;;14.00;99.90;;;;;;5080653;28;20381;-57
2022/09/16 01:59:57;;;;;;;;;;;14.00;99.90;;;;;;5080335;28;19920;-58
2022/09/16 02:02:30;;;;;;;;;;;14.10;99.90;;;;;;5080244;28;19912;-59
2022/09/16 02:04:57;;;;;;;;;;;14.10;99.90;;;;;;5080191;28;19909;-58
2022/09/16 02:07:26;;;;;;;;;;;14.10;99.90;;;;;;5096337;28;19919;-59
2022/09/16 02:09:54;;;;;;;;;;;13.90;99.90;;;;;;5080151;28;20041;-57
2022/09/16 02:12:22;;;;;;;;;;;13.90;99.90;;;;;;5080172;28;19908;-58
2022/09/16 02:14:49;;;;;;;;;;;13.80;99.90;;;;;;5096112;28;20215;-58
2022/09/16 02:17:17;;;;;;;;;;;13.80;99.90;;;;;;5080043;28;19909;-58
2022/09/16 02:19:53;;;;;;;;;;;13.80;99.90;;;;;;5079960;28;19912;-58
2022/09/16 02:22:24;;;;;;;;;;;13.70;99.90;;;;;;5079837;28;19932;-58
2022/09/16 02:24:50;;;;;;;;;;;13.60;99.90;;;;;;5080453;28;20352;-58
2022/09/16 02:27:17;;;;;;;;;;;13.70;99.90;;;;;;5079775;28;19966;-58
2022/09/16 02:29:54;;;;;;;;;;;13.70;99.90;;;;;;5095925;28;19916;-58
2022/09/16 02:32:22;;;;;;;;;;;13.80;99.90;;;;;;5079756;28;19908;-57
2022/09/16 02:34:49;;;;;;;;;;;13.90;99.90;;;;;;5079898;28;20253;-57
2022/09/16 02:37:27;;;;;;;;;;;14.00;99.90;;;;;;5079629;28;20199;-57
2022/09/16 02:39:56;;;;;;;;;;;14.20;99.90;;;;;;5079567;28;20191;-59
2022/09/16 02:42:22;;;;;;;;;;;14.30;99.90;;;;;;5078784;28;19905;-57
2022/09/16 02:44:48;;;;;;;;;;;14.30;99.90;;;;;;5079711;28;20315;-59
2022/09/16 02:47:33;;;;;;;;;;;14.00;99.90;;;;;;5080053;28;19943;-58
2022/09/16 02:50:01;;;;;;;;;;;13.80;99.90;;;;;;5079381;28;19908;-58
2022/09/16 02:52:35;;;;;;;;;;;13.70;99.90;;;;;;5095477;28;19920;-59
2022/09/16 02:55:04;;;;;;;;;;;13.50;99.90;;;;;;5079244;28;19912;-59
2022/09/16 02:57:30;;;;;;;;;;;13.40;99.90;;;;;;5079231;28;19916;-61
2022/09/16 02:59:56;;;;;;;;;;;13.40;99.90;;;;;;5079447;28;19912;-62
2022/09/16 03:02:21;;;;;;;;;;;13.30;99.90;;;;;;5095225;28;19912;-60
2022/09/16 03:04:47;;;;;;;;;;;13.20;99.90;;;;;;5079114;28;19908;-60
2022/09/16 03:07:14;;;;;;;;;;;13.10;99.90;;;;;;5079085;28;19917;-60
2022/09/16 03:09:42;;;;;;;;;;;13.00;99.90;;;;;;5079299;28;19934;-61
2022/09/16 03:12:26;;;;;;;;;;;13.10;99.90;;;;;;5078952;28;19940;-61
2022/09/16 03:14:52;;;;;;;;;;;13.00;99.90;;;;;;5078823;28;19959;-59
2022/09/16 03:17:20;;;;;;;;;;;13.10;99.90;;;;;;5078801;28;20272;-60
2022/09/16 03:20:02;;;;;;;;;;;13.20;99.90;;;;;;5078115;28;19965;-58
2022/09/16 03:22:27;;;;;;;;;;;13.30;99.90;;;;;;5078942;28;19917;-60
2022/09/16 03:25:06;;;;;;;;;;;13.30;99.90;;;;;;5078554;28;20179;-59
2022/09/16 03:27:52;;;;;;;;;;;13.40;99.90;;;;;;5094875;28;19908;-57
2022/09/16 03:30:18;;;;;;;;;;;13.30;99.90;;;;;;5047670;28;19908;-59
2022/09/16 03:32:48;;;;;;;;;;;13.50;99.90;;;;;;5078014;28;19973;-60
2022/09/16 03:35:18;;;;;;;;;;;13.30;99.90;;;;;;5078461;28;19919;-59
2022/09/16 03:37:44;;;;;;;;;;;13.30;99.90;;;;;;5078452;28;19908;-59
2022/09/16 03:40:12;;;;;;;;;;;13.30;99.90;;;;;;5078331;28;19912;-60
2022/09/16 03:42:39;;;;;;;;;;;13.20;99.90;;;;;;5079245;28;20280;-59
2022/09/16 03:45:05;;;;;;;;;;;13.30;99.90;;;;;;5078006;28;19908;-58
2022/09/16 03:47:31;;;;;;;;;;;13.30;99.90;;;;;;5094261;28;20337;-59
2022/09/16 03:49:57;;;;;;;;;;;13.40;99.90;;;;;;5078500;28;19962;-59
2022/09/16 03:52:23;;;;;;;;;;;13.50;99.90;;;;;;5078185;28;19912;-59
2022/09/16 03:54:48;;;;;;;;;;;13.60;99.90;;;;;;5078259;28;19916;-60
2022/09/16 03:57:14;;;;;;;;;;;13.70;99.90;;;;;;5077984;28;20049;-59
2022/09/16 03:59:40;;;;;;;;;;;13.80;99.90;;;;;;5077906;28;19912;-58
2022/09/16 04:02:06;;;;;;;;;;;13.80;99.90;;;;;;5077279;28;19955;-57
2022/09/16 04:04:32;;;;;;;;;;;13.80;99.90;;;;;;5077158;28;20461;-58
2022/09/16 04:06:57;;;;;;;;;;;13.90;99.90;;;;;;5077480;28;20294;-58
2022/09/16 04:09:23;;;;;;;;;;;13.80;99.90;;;;;;5077067;28;20023;-59
2022/09/16 04:11:49;;;;;;;;;;;13.70;99.90;;;;;;5077851;28;19920;-60
2022/09/16 04:14:15;;;;;;;;;;;13.70;99.90;;;;;;5076934;28;19996;-58
2022/09/16 04:16:40;;;;;;;;;;;13.60;99.90;;;;;;5077156;28;19913;-58
2022/09/16 04:19:06;;;;;;;;;;;13.50;99.90;;;;;;5077768;28;20283;-58
2022/09/16 04:21:32;;;;;;;;;;;13.50;99.90;;;;;;5076874;28;19980;-60
2022/09/16 04:23:58;;;;;;;;;;;13.30;99.90;;;;;;5077707;28;19912;-60
2022/09/16 04:26:24;;;;;;;;;;;13.30;99.90;;;;;;5076868;28;20196;-59
2022/09/16 04:28:55;;;;;;;;;;;13.30;99.90;;;;;;5077611;28;19912;-58
2022/09/16 04:31:21;;;;;;;;;;;13.40;99.90;;;;;;5078222;28;19912;-60
2022/09/16 04:33:47;;;;;;;;;;;13.30;99.90;;;;;;5076681;28;19917;-58
2022/09/16 04:36:14;;;;;;;;;;;13.30;99.90;;;;;;5077530;28;19913;-58
2022/09/16 04:38:41;;;;;;;;;;;13.40;99.90;;;;;;5077501;28;19918;-58
2022/09/16 04:41:11;;;;;;;;;;;13.30;99.90;;;;;;5077486;28;19912;-59
2022/09/16 04:43:37;;;;;;;;;;;13.20;99.90;;;;;;5077441;28;19908;-59
2022/09/16 04:46:03;;;;;;;;;;;13.30;99.90;;;;;;5076883;28;19927;-59
2022/09/16 04:48:29;;;;;;;;;;;13.10;99.90;;;;;;5077444;28;20247;-59
2022/09/16 04:51:00;;;;;;;;;;;13.20;99.90;;;;;;5077319;28;19923;-59
2022/09/16 04:53:26;;;;;;;;;;;13.10;99.90;;;;;;5077265;28;19981;-60
2022/09/16 04:55:52;;;;;;;;;;;13.10;99.90;;;;;;5077338;28;19927;-60
2022/09/16 04:58:17;;;;;;;;;;;13.10;99.90;;;;;;5077336;28;20280;-58
2022/09/16 05:00:43;;;;;;;;;;;13.00;99.90;;;;;;5076426;28;19961;-58
2022/09/16 05:03:09;;;;;;;;;;;13.10;99.90;;;;;;5077650;28;19950;-59
2022/09/16 05:05:35;;;;;;;;;;;13.10;99.90;;;;;;5076438;28;19948;-59
2022/09/16 05:08:00;;;;;;;;;;;13.10;99.90;;;;;;5077232;28;20188;-58
2022/09/16 05:10:27;;;;;;;;;;;13.00;99.90;;;;;;5076291;28;19922;-58
2022/09/16 05:12:53;;;;;;;;;;;13.10;99.90;;;;;;5076464;28;19943;-59
2022/09/16 05:15:19;;;;;;;;;;;13.10;99.90;;;;;;5093188;28;19908;-55
2022/09/16 05:17:45;;;;;;;;;;;13.20;99.90;;;;;;5077976;28;20246;-59
2022/09/16 05:20:11;;;;;;;;;;;13.20;99.90;;;;;;5081040;28;19923;-59
2022/09/16 05:22:37;;;;;;;;;;;13.20;99.90;;;;;;5080273;28;19969;-58
2022/09/16 05:25:03;;;;;;;;;;;13.20;99.90;;;;;;5080141;28;19916;-59
2022/09/16 05:27:30;;;;;;;;;;;13.20;99.90;;;;;;5080568;28;19924;-59
2022/09/16 05:29:56;;;;;;;;;;;13.20;99.90;;;;;;5080830;28;19924;-59
2022/09/16 05:32:21;;;;;;;;;;;13.10;99.90;;;;;;5080800;28;19916;-60
2022/09/16 05:34:49;;;;;;;;;;;13.20;99.90;;;;;;5080652;28;19951;-58
2022/09/16 05:37:15;;;;;;;;;;;13.30;99.90;;;;;;5080704;28;19982;-59
2022/09/16 05:39:42;;;;;;;;;;;13.20;99.90;;;;;;5080696;28;19919;-59
2022/09/16 05:42:08;;;;;;;;;;;13.10;99.90;;;;;;5080523;28;19976;-58
2022/09/16 05:44:34;;;;;;;;;;;13.10;99.90;;;;;;5080364;28;19916;-59
2022/09/16 05:47:00;;;;;;;;;;;13.10;99.90;;;;;;5079721;28;19924;-57
2022/09/16 05:49:25;;;;;;;;;;;13.30;99.90;;;;;;5080382;28;20276;-57
2022/09/16 05:51:52;;;;;;;;;;;13.40;99.90;;;;;;5079742;28;19935;-54
2022/09/16 05:54:18;;;;;;;;;;;13.40;99.90;;;;;;5080305;28;20187;-56
2022/09/16 05:56:44;;;;;;;;;;;13.30;99.90;;;;;;5080749;28;20010;-59
2022/09/16 05:59:10;;;;;;;;;;;13.20;99.90;;;;;;5080300;28;19908;-58
2022/09/16 06:01:37;;;;;;;;;;;13.20;99.90;;;;;;5080345;28;19912;-59
2022/09/16 06:04:04;;;;;;;;;;;13.10;99.90;;;;;;5096392;28;20145;-59
2022/09/16 06:06:34;;;;;;;;;;;12.80;99.90;;;;;;5096439;28;19908;-58
2022/09/16 06:09:03;;;;;;;;;;;12.70;99.90;;;;;;5096442;28;19909;-57
2022/09/16 06:11:29;;;;;;;;;;;12.70;99.90;;;;;;5080100;28;19908;-60
2022/09/16 06:13:56;;;;;;;;;;;12.60;99.90;;;;;;5079971;28;19931;-58
2022/09/16 06:16:24;;;;;;;;;;;12.60;99.90;;;;;;5096112;28;19913;-57
2022/09/16 06:18:50;;;;;;;;;;;12.60;99.90;;;;;;5079941;28;19998;-57
2022/09/16 06:21:16;;;;;;;;;;;12.60;99.90;;;;;;5080189;28;19947;-57
2022/09/16 06:23:41;;;;;;;;;;;12.50;99.90;;;;;;5078843;28;19920;-59
2022/09/16 06:26:12;;;;;;;;;;;12.50;99.90;;;;;;5080435;28;20242;-56
2022/09/16 06:28:38;;;;;;;;;;;12.60;99.90;;;;;;5079612;28;19908;-56
2022/09/16 06:31:09;;;;;;;;;;;12.60;99.90;;;;;;5080239;28;19912;-56
2022/09/16 06:33:35;;;;;;;;;;;12.60;99.90;;;;;;5079596;28;19916;-57
2022/09/16 06:36:02;;;;;;;;;;;12.60;99.90;;;;;;5079716;28;19911;-58
2022/09/16 06:38:28;;;;;;;;;;;13.30;99.90;;;;;;5079531;28;19939;-56
2022/09/16 06:40:56;;;;;;;;;;;13.20;99.90;;;;;;5079876;28;20251;-58
2022/09/16 06:43:22;;;;;;;;;;;13.00;99.90;;;;;;5079227;28;19912;-58
2022/09/16 06:45:48;;;;;;;;;;;12.90;99.90;;;;;;5079482;28;19974;-58
2022/09/16 06:48:13;;;;;;;;;;;12.80;99.90;;;;;;5079496;28;19963;-59
2022/09/16 06:50:39;;;;;;;;;;;12.80;99.90;;;;;;5079409;28;20004;-59
2022/09/16 06:53:05;;;;;;;;;;;12.80;99.90;;;;;;5079075;28;19959;-58
2022/09/16 06:55:30;;;;;;;;;;;12.80;99.90;;;;;;5079346;28;19942;-59
2022/09/16 06:57:56;;;;;;;;;;;12.90;99.90;;;;;;5079186;28;19912;-57
2022/09/16 07:00:22;;;;;;;;;;;13.00;99.90;;;;;;5079195;28;19999;-57
2022/09/16 07:02:47;;;;;;;;;;;13.00;99.90;;;;;;5079168;28;19912;-57
2022/09/16 07:05:13;;;;;;;;;;;13.20;99.90;;;;;;5079080;28;20269;-57
2022/09/16 07:07:39;;;;;;;;;;;13.20;99.90;;;;;;5078432;28;19920;-57
2022/09/16 07:10:05;;;;;;;;;;;13.30;99.90;;;;;;5079004;28;19912;-57
2022/09/16 07:12:31;;;;;;;;;;;13.30;99.90;;;;;;5078971;28;19909;-58
2022/09/16 07:14:57;;;;;;;;;;;13.40;99.90;;;;;;5078035;28;19912;-58
2022/09/16 07:17:26;;;;;;;;;;;13.40;99.90;;;;;;5095157;28;19974;-59
2022/09/16 07:19:52;;;;;;;;;;;13.50;99.90;;;;;;5078836;28;19924;-59
2022/09/16 07:22:17;;;;;;;;;;;13.50;99.90;;;;;;5078706;28;20203;-58
2022/09/16 07:24:44;;;;;;;;;;;13.40;99.90;;;;;;5077827;28;19916;-58
2022/09/16 07:27:10;;;;;;;;;;;13.30;99.90;;;;;;5078719;28;19912;-58
2022/09/16 07:29:36;;;;;;;;;;;13.30;99.90;;;;;;5078629;28;19913;-58
2022/09/16 07:32:01;;;;;;;;;;;13.30;99.90;;;;;;5077908;28;19994;-59
2022/09/16 07:34:27;;;;;;;;;;;13.40;99.90;;;;;;5078423;28;20245;-59
2022/09/16 07:36:53;;;;;;;;;;;13.40;99.90;;;;;;5078503;28;19916;-60
2022/09/16 07:39:20;;;;;;;;;;;13.50;99.90;;;;;;5077602;28;19923;-60
2022/09/16 07:41:47;;;;;;;;;;;13.40;99.90;;;;;;5093703;28;20196;-60
2022/09/16 07:44:14;;;;;;;;;;;13.50;99.90;;;;;;5078248;28;19908;-60
2022/09/16 07:46:39;;;;;;;;;;;13.50;99.90;;;;;;5094422;28;19908;-60
2022/09/16 07:49:06;;;;;;;;;;;13.30;99.90;;;;;;5078484;28;19919;-59
2022/09/16 07:51:32;;;;;;;;;;;13.30;99.90;;;;;;5078480;28;20286;-60
2022/09/16 07:54:03;;;;;;;;;;;13.30;99.90;;;;;;5078018;28;19918;-61
2022/09/16 07:56:29;;;;;;;;;;;13.50;99.90;;;;;;5078618;28;19920;-59
2022/09/16 07:58:55;;;;;;;;;;;13.40;99.90;;;;;;5094281;28;19909;-60
2022/09/16 08:01:21;;;;;;;;;;;13.40;99.90;;;;;;5077280;28;19924;-60
2022/09/16 08:03:48;;;;;;;;;;;13.40;99.90;;;;;;5077861;28;19986;-60
2022/09/16 08:06:15;;;;;;;;;;;13.60;99.90;;;;;;5077942;28;20276;-59
2022/09/16 08:08:41;;;;;;;;;;;13.70;99.90;;;;;;5077125;28;19909;-60
2022/09/16 08:11:07;;;;;;;;;;;13.80;99.90;;;;;;5078316;28;19936;-61
2022/09/16 08:13:34;;;;;;;;;;;13.80;99.90;;;;;;5077779;28;20265;-59
2022/09/16 08:16:20;;;;;;;;;;;13.70;99.90;;;;;;5077099;28;19923;-60
2022/09/16 08:18:48;;;;;;;;;;;13.80;99.90;;;;;;5076421;28;19912;-59
2022/09/16 08:21:16;;;;;;;;;;;13.70;99.90;;;;;;5077709;28;19925;-58
2022/09/16 08:23:42;;;;;;;;;;;13.60;99.90;;;;;;5077501;28;19941;-58
2022/09/16 08:26:09;;;;;;;;;;;13.40;99.90;;;;;;5076952;28;19917;-58
2022/09/16 08:28:36;;;;;;;;;;;13.40;99.90;;;;;;5077811;28;20229;-59
2022/09/16 08:31:02;;;;;;;;;;;13.30;99.90;;;;;;5077609;28;19908;-58
2022/09/16 08:33:28;;;;;;;;;;;13.50;99.90;;;;;;5093667;28;19917;-58
2022/09/16 08:35:58;;;;;;;;;;;13.60;99.90;;;;;;5077531;28;19912;-58
2022/09/16 08:38:24;;;;;;;;;;;13.80;99.90;;;;;;5077482;28;20207;-59
2022/09/16 08:40:53;;;;;;;;;;;14.10;99.90;;;;;;5076710;28;19909;-58
2022/09/16 08:43:23;;;;;;;;;;;14.10;99.90;;;;;;5077459;28;20306;-58
2022/09/16 08:46:09;;;;;;;;;;;14.00;99.90;;;;;;5077523;28;19909;-57
2022/09/16 08:49:06;;;;;;;;;;;14.00;99.90;;;;;;5077403;28;19915;-57
2022/09/16 08:51:32;;;;;;;;;;;13.90;99.90;;;;;;5043983;28;19966;-58
2022/09/16 08:54:02;;;;;;;;;;;13.90;99.90;;;;;;5077313;28;20207;-56
2022/09/16 08:56:29;;;;;;;;;;;13.90;99.90;;;;;;5077301;28;20198;-57
2022/09/16 08:58:59;;;;;;;;;;;14.00;99.90;;;;;;5077323;28;19909;-60
2022/09/16 09:01:33;;;;;;;;;;;14.20;99.90;;;;;;5077850;28;19908;-58
2022/09/16 09:04:02;;;;;;;;;;;14.30;99.90;;;;;;5076538;28;19970;-58
2022/09/16 09:06:35;;;;;;;;;;;14.50;99.90;;;;;;5076466;28;19909;-58
2022/09/16 09:09:21;;;;;;;;;;;14.60;99.90;;;;;;5077257;28;19919;-57
2022/09/16 09:12:13;;;;;;;;;;;14.70;99.90;;;;;;5062702;28;19919;-58
2022/09/16 09:14:57;;;;;;;;;;;14.70;99.90;;;;;;5077368;28;19913;-58
2022/09/16 09:17:36;;;;;;;;;;;14.60;99.90;;;;;;5077116;28;20351;-58
2022/09/16 09:20:20;;;;;;;;;;;14.40;99.90;;;;;;5077152;28;19908;-59
2022/09/16 09:22:49;;;;;;;;;;;14.40;99.90;;;;;;5076899;28;19928;-59
2022/09/16 09:25:20;;;;;;;;;;;14.60;99.90;;;;;;5076943;28;19935;-59
2022/09/16 09:27:55;;;;;;;;;;;14.80;99.90;;;;;;5076964;28;20272;-58
2022/09/16 09:30:22;;;;;;;;;;;15.10;99.90;;;;;;5076271;28;20183;-58
2022/09/16 09:32:47;;;;;;;;;;;15.40;99.90;;;;;;5076297;28;19955;-59
2022/09/16 09:35:26;;;;;;;;;;;15.50;99.90;;;;;;5076797;28;19985;-59
2022/09/16 09:37:52;;;;;;;;;;;15.70;99.90;;;;;;5077047;28;20213;-58
2022/09/16 09:40:22;;;;;;;;;;;15.70;99.90;;;;;;5076809;28;19976;-59
2022/09/16 09:43:12;;;;;;;;;;;16.00;99.90;;;;;;5077793;28;20315;-59
2022/09/16 09:45:50;;;;;;;;;;;16.20;99.90;;;;;;5069117;28;19908;-57
2022/09/16 09:48:25;;;;;;;;;;;16.30;99.90;;;;;;5077169;28;19973;-58
2022/09/16 09:50:52;;;;;;;;;;;15.70;99.90;;;;;;5076831;28;20334;-58
2022/09/16 09:53:22;;;;;;;;;;;14.80;99.90;;;;;;5076709;28;19912;-57
2022/09/16 09:55:50;;;;;;;;;;;14.30;99.90;;;;;;5075969;28;20181;-57
2022/09/16 09:58:36;;;;;;;;;;;13.90;99.90;;;;;;5076973;28;20168;-56
2022/09/16 10:01:01;;;;;;;;;;;13.60;99.90;;;;;;5076768;28;19999;-57
2022/09/16 10:03:28;;;;;;;;;;;13.60;99.90;;;;;;5077073;28;19951;-58
2022/09/16 10:05:54;;;;;;;;;;;13.60;99.90;;;;;;5080306;28;20006;-57
2022/09/16 10:08:19;;;;;;;;;;;13.70;99.90;;;;;;5062736;28;20290;-59
2022/09/16 10:10:48;;;;;;;;;;;13.90;99.90;;;;;;5080242;28;19919;-58
2022/09/16 10:13:13;;;;;;;;;;;13.90;99.90;;;;;;5080688;28;19919;-57
2022/09/16 10:15:39;;;;;;;;;;;14.00;99.90;;;;;;5080022;28;19912;-58
2022/09/16 10:18:13;;;;;;;;;;;14.30;99.90;;;;;;5080041;28;19908;-58
2022/09/16 10:20:40;;;;;;;;;;;14.80;99.90;;;;;;5079969;28;19908;-57
2022/09/16 10:23:14;;;;;;;;;;;15.00;99.90;;;;;;5079085;28;19926;-58
2022/09/16 10:25:40;;;;;;;;;;;15.00;99.90;;;;;;5079942;28;20251;-57
2022/09/16 10:28:23;;;;;;;;;;;14.60;99.90;;;;;;5079923;28;20295;-56
2022/09/16 10:30:53;;;;;;;;;;;14.40;99.90;;;;;;5079833;28;19962;-57
2022/09/16 10:33:40;;;;;;;;;;;14.00;99.90;;;;;;5079680;28;20275;-57
2022/09/16 10:36:07;;;;;;;;;;;13.80;99.90;;;;;;5079061;28;19948;-56
2022/09/16 10:38:38;;;;;;;;;;;13.70;99.90;;;;;;5079585;28;19940;-57
2022/09/16 10:41:08;;;;;;;;;;;13.60;99.90;;;;;;5079941;28;20292;-56
2022/09/16 10:43:35;;;;;;;;;;;13.70;99.90;;;;;;5079543;28;19916;-57
2022/09/16 10:46:01;;;;;;;;;;;14.00;99.90;;;;;;5079609;28;19916;-58
2022/09/16 10:48:28;;;;;;;;;;;14.20;99.90;;;;;;5078760;28;19912;-58
2022/09/16 10:51:04;;;;;;;;;;;14.50;99.90;;;;;;5079484;28;19995;-57
2022/09/16 10:53:37;;;;;;;;;;;14.70;99.90;;;;;;5078631;28;19948;-57
2022/09/16 10:56:04;;;;;;;;;;;15.50;99.90;;;;;;5079367;28;19908;-58
2022/09/16 10:58:30;;;;;;;;;;;16.50;99.90;;;;;;5079313;28;20272;-58
2022/09/16 11:01:08;;;;;;;;;;;16.90;99.90;;;;;;5079206;28;19947;-58
2022/09/16 11:03:40;;;;;;;;;;;16.90;99.90;;;;;;5079220;28;19912;-57
2022/09/16 11:06:14;;;;;;;;;;;16.30;99.90;;;;;;5079195;28;20295;-58
2022/09/16 11:08:59;;;;;;;;;;;16.00;99.90;;;;;;5079028;28;19914;-57
2022/09/16 11:11:43;;;;;;;;;;;15.50;99.90;;;;;;5078946;28;19908;-58
2022/09/16 11:14:09;;;;;;;;;;;14.70;99.90;;;;;;5079257;28;20011;-56
2022/09/16 11:16:41;;;;;;;;;;;14.30;99.90;;;;;;5077814;28;19948;-57
2022/09/16 11:19:18;;;;;;;;;;;14.10;99.90;;;;;;5078731;28;19908;-58
2022/09/16 11:21:54;;;;;;;;;;;14.30;99.90;;;;;;5078837;28;19931;-58
2022/09/16 11:24:20;;;;;;;;;;;14.50;99.90;;;;;;5079112;28;20003;-58
2022/09/16 11:27:06;;;;;;;;;;;15.20;99.90;;;;;;5078698;28;19955;-58
2022/09/16 11:29:50;;;;;;;;;;;15.80;99.90;;;;;;5078960;28;19935;-58
2022/09/16 11:32:34;;;;;;;;;;;15.60;99.90;;;;;;5077892;28;19962;-58
2022/09/16 11:34:59;;;;;;;;;;;15.80;99.90;;;;;;5078523;28;20272;-58
2022/09/16 11:37:45;;;;;;;;;;;16.50;99.90;;;;;;5078965;28;19934;-59
2022/09/16 11:40:17;;;;;;;;;;;17.80;99.90;;;;;;5078595;28;19916;-59
2022/09/16 11:42:51;;;;;;;;;;;18.80;99.90;;;;;;5078483;28;19999;-57
2022/09/16 11:45:20;;;;;;;;;;;19.40;99.90;;;;;;5078467;28;20327;-57
2022/09/16 11:48:12;;;;;;;;;;;19.40;99.90;;;;;;5078193;28;19919;-57
2022/09/16 11:50:46;;;;;;;;;;;19.00;99.90;;;;;;5078043;28;19965;-59
2022/09/16 11:53:21;;;;;;;;;;;18.10;99.90;;;;;;5077965;28;19955;-57
2022/09/16 11:55:47;;;;;;;;;;;17.20;99.90;;;;;;5077996;28;19919;-57
2022/09/16 11:58:33;;;;;;;;;;;16.60;99.90;;;;;;5078072;28;19920;-58
2022/09/16 12:01:01;;;;;;;;;;;16.10;99.90;;;;;;5076764;28;19941;-58
2022/09/16 12:03:34;;;;;;;;;;;15.60;99.90;;;;;;5077918;28;20161;-59
2022/09/16 12:06:04;;;;;;;;;;;15.40;99.90;;;;;;5077893;28;19909;-57
2022/09/16 12:08:36;;;;;;;;;;;15.20;99.90;;;;;;5077823;28;19908;-58
2022/09/16 12:11:22;;;;;;;;;;;15.20;99.90;;;;;;5077836;28;19916;-58
2022/09/16 12:13:59;;;;;;;;;;;15.40;99.90;;;;;;5078277;28;19978;-58
2022/09/16 12:16:34;;;;;;;;;;;15.60;99.90;;;;;;5077847;28;19908;-58
2022/09/16 12:19:11;;;;;;;;;;;15.80;99.90;;;;;;5077774;28;19915;-58
2022/09/16 12:21:41;;;;;;;;;;;15.70;99.90;;;;;;5076929;28;19916;-58
2022/09/16 12:24:25;;;;;;;;;;;15.70;99.90;;;;;;5077534;28;20075;-57
2022/09/16 12:27:10;;;;;;;;;;;15.50;99.90;;;;;;5077086;28;19919;-57
2022/09/16 12:29:35;;;;;;;;;;;15.70;99.90;;;;;;5077588;28;19912;-58
2022/09/16 12:32:04;;;;;;;;;;;15.80;99.90;;;;;;5077540;28;19918;-58
2022/09/16 12:34:36;;;;;;;;;;;15.90;99.90;;;;;;5077417;28;20275;-58
2022/09/16 12:37:22;;;;;;;;;;;16.10;99.90;;;;;;5077369;28;19915;-59
2022/09/16 12:39:49;;;;;;;;;;;16.30;99.90;;;;;;5076711;28;19919;-57
2022/09/16 12:42:41;;;;;;;;;;;16.10;99.90;;;;;;5078092;28;19916;-58
2022/09/16 12:45:18;;;;;;;;;;;16.10;99.90;;;;;;5077599;28;20303;-58
2022/09/16 12:47:49;;;;;;;;;;;16.70;99.90;;;;;;5076733;28;19912;-59
2022/09/16 12:50:34;;;;;;;;;;;18.40;99.90;;;;;;5077350;28;19908;-60
2022/09/16 12:53:18;;;;;;;;;;;19.80;99.90;;;;;;5077345;28;19919;-59
2022/09/16 12:55:50;;;;;;;;;;;20.70;99.90;;;;;;5077293;28;20283;-59
2022/09/16 12:58:36;;;;;;;;;;;20.60;99.90;;;;;;5077354;28;19914;-58
2022/09/16 13:01:08;;;;;;;;;;;19.90;99.90;;;;;;5066929;28;19908;-58
2022/09/16 13:03:36;;;;;;;;;;;19.40;99.90;;;;;;5077441;28;19912;-57
2022/09/16 13:06:04;;;;;;;;;;;18.90;99.90;;;;;;5077282;28;20234;-58
2022/09/16 13:08:31;;;;;;;;;;;18.90;99.90;;;;;;5077252;28;19916;-57
2022/09/16 13:11:02;;;;;;;;;;;19.30;99.90;;;;;;5077189;28;20003;-58
2022/09/16 13:13:48;;;;;;;;;;;18.60;99.90;;;;;;5077154;28;19924;-57
2022/09/16 13:16:14;;;;;;;;;;;18.40;99.90;;;;;;5076892;28;19913;-58
2022/09/16 13:18:48;;;;;;;;;;;18.20;99.90;;;;;;5077693;28;20287;-57
2022/09/16 13:21:20;;;;;;;;;;;17.60;99.90;;;;;;5077252;28;19978;-55
2022/09/16 13:23:48;;;;;;;;;;;17.00;99.90;;;;;;5076270;28;19916;-57
2022/09/16 13:26:13;;;;;;;;;;;16.70;99.90;;;;;;5076977;28;19934;-57
2022/09/16 13:28:42;;;;;;;;;;;17.60;99.90;;;;;;5093033;28;19917;-57
2022/09/16 13:31:18;;;;;;;;;;;19.50;99.90;;;;;;5077057;28;19999;-56
2022/09/16 13:33:44;;;;;;;;;;;21.40;99.90;;;;;;5076832;28;20003;-57
2022/09/16 13:36:19;;;;;;;;;;;21.10;99.90;;;;;;5076082;28;20228;-57
2022/09/16 13:38:46;;;;;;;;;;;21.30;99.90;;;;;;5077615;28;20204;-57
2022/09/16 13:41:12;;;;;;;;;;;22.10;99.90;;;;;;5080694;28;19908;-57
2022/09/16 13:43:41;;;;;;;;;;;22.40;99.90;;;;;;5080646;28;19919;-57
2022/09/16 13:46:14;;;;;;;;;;;23.70;99.90;;;;;;5080632;28;19908;-57
2022/09/16 13:48:43;;;;;;;;;;;25.10;99.90;;;;;;5080372;28;19908;-58
2022/09/16 13:51:12;;;;;;;;;;;24.30;99.90;;;;;;5080566;28;19905;-58
2022/09/16 13:53:43;;;;;;;;;;;23.20;99.90;;;;;;5080444;28;19923;-56
2022/09/16 13:56:12;;;;;;;;;;;22.00;99.90;;;;;;5080545;28;19916;-57
2022/09/16 13:58:50;;;;;;;;;;;21.70;99.90;;;;;;5079686;28;19912;-57
2022/09/16 14:01:20;;;;;;;;;;;21.40;99.90;;;;;;5080764;28;20326;-57
2022/09/16 14:03:48;;;;;;;;;;;20.90;99.90;;;;;;5080301;28;20179;-57
2022/09/16 14:06:14;;;;;;;;;;;20.40;99.90;;;;;;5080077;28;19923;-57
2022/09/16 14:08:56;;;;;;;;;;;19.80;99.90;;;;;;5080136;28;19912;-57
2022/09/16 14:11:34;;;;;;;;;;;19.00;99.90;;;;;;5062721;28;20004;-58
2022/09/16 14:14:07;;;;;;;;;;;18.10;99.90;;;;;;5079328;28;20012;-57
2022/09/16 14:16:33;;;;;;;;;;;17.20;99.90;;;;;;5080125;28;19908;-59
2022/09/16 14:19:05;;;;;;;;;;;16.70;99.90;;;;;;5080064;28;19914;-57
2022/09/16 14:21:30;;;;;;;;;;;16.40;99.90;;;;;;5079209;28;19966;-58
2022/09/16 14:24:11;;;;;;;;;;;16.20;99.90;;;;;;5079982;28;19920;-60
2022/09/16 14:26:37;;;;;;;;;;;15.80;99.90;;;;;;5079103;28;19970;-57
2022/09/16 14:29:03;;;;;;;;;;;15.20;99.90;;;;;;5096003;28;19912;-57
2022/09/16 14:31:30;;;;;;;;;;;14.90;99.90;;;;;;5079119;28;19919;-57
2022/09/16 14:34:00;;;;;;;;;;;14.60;99.90;;;;;;5080010;28;20226;-58